Time;durP1;ratioP1;P1;durP2;ratioP2;P2;SDS_P1;SDS_P2;PMS_P1;PMS_P2;Temp;Humidity;BMP_temperature;BMP_pressure;BME280_temperature;BME280_humidity;BME280_pressure;Samples;Min_cycle;Max_cycle;Signal;HPM_P1;HPM_P2
2024/03/07 00:00:00;;;;;;;14.40;8.63;;;5.40;99.90;;;;;;2057163;28;20300;-75
2024/03/07 00:01:03;;;;;;;16.30;8.98;;;5.40;99.90;;;;;;2056693;28;20233;-75
2024/03/07 00:02:04;;;;;;;12.40;7.60;;;5.40;99.90;;;;;;2051973;28;20230;-76
2024/03/07 00:03:04;;;;;;;15.10;8.53;;;5.30;99.90;;;;;;2058798;28;20259;-75
2024/03/07 00:04:05;;;;;;;16.70;9.23;;;5.30;99.90;;;;;;2049556;28;20812;-76
2024/03/07 00:05:07;;;;;;;12.98;7.75;;;5.40;99.90;;;;;;2058021;28;20235;-77
2024/03/07 00:06:08;;;;;;;16.42;8.90;;;5.30;99.90;;;;;;2073251;28;20253;-76
2024/03/07 00:07:09;;;;;;;14.07;8.17;;;5.30;99.90;;;;;;2066628;28;20226;-76
2024/03/07 00:08:11;;;;;;;15.57;8.60;;;5.20;99.90;;;;;;2066819;28;20242;-75
2024/03/07 00:09:11;;;;;;;13.43;7.88;;;5.20;99.90;;;;;;2055681;28;20302;-75
2024/03/07 00:10:12;;;;;;;15.60;8.80;;;5.30;99.90;;;;;;2065617;28;20655;-74
2024/03/07 00:11:13;;;;;;;14.75;7.78;;;5.20;99.90;;;;;;2057624;28;20222;-76
2024/03/07 00:12:14;;;;;;;13.50;7.63;;;5.20;99.90;;;;;;2056199;28;20250;-75
2024/03/07 00:13:15;;;;;;;15.13;8.30;;;5.20;99.90;;;;;;2074323;28;20225;-76
2024/03/07 00:14:16;;;;;;;16.40;9.10;;;5.10;99.90;;;;;;2063102;28;20226;-74
2024/03/07 00:15:17;;;;;;;15.83;8.60;;;5.10;99.90;;;;;;2061590;28;20233;-75
2024/03/07 00:16:18;;;;;;;15.35;7.90;;;5.00;99.90;;;;;;2044317;28;20274;-75
2024/03/07 00:17:19;;;;;;;15.70;8.87;;;5.00;99.90;;;;;;2051415;28;20222;-74
2024/03/07 00:18:20;;;;;;;15.30;8.77;;;5.00;99.90;;;;;;2063152;28;20274;-74
2024/03/07 00:19:21;;;;;;;16.23;8.37;;;5.10;99.90;;;;;;2065247;28;20225;-75
2024/03/07 00:20:21;;;;;;;18.80;9.77;;;5.20;99.90;;;;;;2057427;28;20226;-74
2024/03/07 00:21:22;;;;;;;17.30;9.73;;;5.20;99.90;;;;;;2064322;28;20256;-75
2024/03/07 00:22:26;;;;;;;18.83;8.80;;;5.20;99.90;;;;;;2065837;28;20565;-74
2024/03/07 00:23:27;;;;;;;14.65;8.25;;;5.20;99.90;;;;;;2066639;28;20618;-73
2024/03/07 00:24:28;;;;;;;13.90;7.50;;;5.30;99.90;;;;;;2075081;28;20256;-77
2024/03/07 00:25:31;;;;;;;14.93;7.57;;;5.30;99.90;;;;;;2066597;28;20226;-78
2024/03/07 00:26:31;;;;;;;12.02;7.57;;;5.20;99.90;;;;;;2058656;28;20231;-79
2024/03/07 00:27:33;;;;;;;11.50;7.43;;;5.20;99.90;;;;;;2060044;28;20264;-77
2024/03/07 00:28:39;;;;;;;10.23;6.22;;;5.20;99.90;;;;;;2067946;28;20297;-79
2024/03/07 00:29:40;;;;;;;11.60;7.30;;;5.10;99.90;;;;;;2071231;28;20300;-79
2024/03/07 00:30:42;;;;;;;14.55;7.82;;;5.20;99.90;;;;;;2060438;28;20713;-78
2024/03/07 00:31:45;;;;;;;14.07;7.50;;;5.20;99.90;;;;;;2057484;28;20234;-78
2024/03/07 00:32:47;;;;;;;12.02;7.25;;;5.20;99.90;;;;;;2053615;28;20221;-75
2024/03/07 00:33:47;;;;;;;11.82;6.43;;;5.10;99.90;;;;;;2050899;28;21092;-79
2024/03/07 00:34:49;;;;;;;11.50;6.80;;;5.10;99.90;;;;;;2066231;28;20255;-79
2024/03/07 00:35:50;;;;;;;9.32;6.15;;;5.20;99.90;;;;;;2073705;28;20188;-80
2024/03/07 00:36:51;;;;;;;11.63;6.60;;;5.20;99.90;;;;;;2064305;28;20210;-78
2024/03/07 00:37:52;;;;;;;10.23;6.28;;;5.20;99.90;;;;;;2066743;28;20240;-77
2024/03/07 00:38:53;;;;;;;11.90;7.60;;;5.20;99.90;;;;;;2055467;28;20189;-80
2024/03/07 00:39:54;;;;;;;12.30;6.68;;;5.30;99.90;;;;;;2056705;28;20242;-78
2024/03/07 00:40:54;;;;;;;11.40;6.50;;;5.30;99.90;;;;;;2052855;28;20190;-78
2024/03/07 00:41:55;;;;;;;10.40;6.27;;;5.30;99.90;;;;;;2057789;28;20195;-78
2024/03/07 00:42:57;;;;;;;8.10;5.93;;;5.30;99.90;;;;;;2058420;28;20708;-76
2024/03/07 00:43:57;;;;;;;8.52;6.00;;;5.30;99.90;;;;;;2066665;28;20632;-78
2024/03/07 00:44:58;;;;;;;8.60;5.50;;;5.30;99.90;;;;;;2058348;28;20191;-78
2024/03/07 00:45:59;;;;;;;10.07;6.03;;;5.20;99.90;;;;;;2051135;28;20661;-78
2024/03/07 00:47:00;;;;;;;11.30;6.40;;;5.20;99.90;;;;;;2067402;28;20616;-79
2024/03/07 00:48:01;;;;;;;11.18;6.40;;;5.20;99.90;;;;;;2053289;28;20254;-78
2024/03/07 00:49:02;;;;;;;11.73;7.10;;;5.20;99.90;;;;;;2057907;28;20192;-79
2024/03/07 00:50:03;;;;;;;11.95;6.70;;;5.20;99.90;;;;;;2056295;28;20500;-79
2024/03/07 00:51:04;;;;;;;10.90;6.32;;;5.20;99.90;;;;;;2068039;28;20233;-78
2024/03/07 00:52:05;;;;;;;13.27;6.90;;;5.30;99.90;;;;;;2046738;28;20243;-78
2024/03/07 00:53:06;;;;;;;9.33;5.73;;;5.30;99.90;;;;;;2044838;29;20239;-79
2024/03/07 00:54:07;;;;;;;7.93;5.47;;;5.30;99.90;;;;;;2063906;28;20268;-78
2024/03/07 00:55:08;;;;;;;9.27;6.03;;;5.40;99.90;;;;;;2047332;28;20262;-78
2024/03/07 00:56:09;;;;;;;10.25;6.25;;;5.40;99.90;;;;;;2045830;28;20238;-78
2024/03/07 00:57:09;;;;;;;9.20;6.33;;;5.50;99.90;;;;;;2054071;28;20326;-79
2024/03/07 00:58:10;;;;;;;9.90;6.17;;;5.40;99.90;;;;;;2046451;29;20235;-78
2024/03/07 00:59:11;;;;;;;9.90;6.60;;;5.40;99.90;;;;;;2057524;28;20241;-78
2024/03/07 01:00:13;;;;;;;11.00;6.83;;;5.40;99.90;;;;;;2066664;28;20234;-78
2024/03/07 01:01:15;;;;;;;13.50;7.35;;;5.50;99.90;;;;;;2069061;28;20242;-78
2024/03/07 01:02:17;;;;;;;12.07;7.28;;;5.50;99.90;;;;;;2061494;28;20237;-78
2024/03/07 01:03:17;;;;;;;11.13;6.80;;;5.40;99.90;;;;;;2059101;28;20239;-79
2024/03/07 01:04:18;;;;;;;11.07;6.97;;;5.50;99.90;;;;;;2057609;28;20325;-78
2024/03/07 01:05:19;;;;;;;15.10;7.87;;;5.50;99.90;;;;;;2056368;28;20765;-78
2024/03/07 01:06:20;;;;;;;16.42;8.55;;;5.50;99.90;;;;;;2064940;28;20253;-78
2024/03/07 01:07:21;;;;;;;20.30;8.77;;;5.50;99.90;;;;;;2058130;28;20233;-79
2024/03/07 01:08:22;;;;;;;11.77;7.30;;;5.50;99.90;;;;;;2059756;28;20599;-79
2024/03/07 01:09:23;;;;;;;14.13;7.93;;;5.50;99.90;;;;;;2058295;28;20253;-78
2024/03/07 01:10:23;;;;;;;11.65;7.78;;;5.50;99.90;;;;;;2047282;28;20219;-78
2024/03/07 01:11:24;;;;;;;11.60;7.47;;;5.50;99.90;;;;;;2045407;28;20746;-78
2024/03/07 01:12:30;;;;;;;11.40;6.93;;;5.50;99.90;;;;;;2045747;28;20268;-78
2024/03/07 01:13:31;;;;;;;11.52;6.82;;;5.50;99.90;;;;;;2054134;28;20258;-78
2024/03/07 01:14:32;;;;;;;17.67;7.97;;;5.60;99.90;;;;;;2074487;28;20217;-78
2024/03/07 01:15:34;;;;;;;13.23;7.13;;;5.50;99.90;;;;;;2073912;28;20213;-78
2024/03/07 01:16:35;;;;;;;16.02;8.52;;;5.50;99.90;;;;;;2066625;28;20257;-78
2024/03/07 01:17:35;;;;;;;14.30;8.80;;;5.40;99.90;;;;;;2075273;28;20232;-78
2024/03/07 01:18:38;;;;;;;18.80;9.87;;;5.40;99.90;;;;;;2067141;28;20264;-78
2024/03/07 01:19:38;;;;;;;10.55;7.07;;;5.50;99.90;;;;;;2065514;28;20319;-79
2024/03/07 01:20:39;;;;;;;13.37;7.67;;;5.50;99.90;;;;;;2062743;28;20226;-79
2024/03/07 01:21:40;;;;;;;9.63;6.10;;;5.50;99.90;;;;;;2059194;28;20250;-79
2024/03/07 01:22:41;;;;;;;11.43;7.03;;;5.50;99.90;;;;;;2069636;28;20231;-80
2024/03/07 01:23:41;;;;;;;15.37;8.67;;;5.40;99.90;;;;;;2075297;28;20224;-79
2024/03/07 01:24:43;;;;;;;14.10;9.27;;;5.50;99.90;;;;;;2065668;28;20658;-79
2024/03/07 01:25:44;;;;;;;16.38;8.20;;;5.50;99.90;;;;;;2066065;28;20217;-81
2024/03/07 01:26:44;;;;;;;13.83;8.03;;;5.60;99.90;;;;;;2056396;28;20218;-80
2024/03/07 01:27:47;;;;;;;14.63;7.60;;;5.60;99.90;;;;;;2064818;28;20220;-80
2024/03/07 01:28:48;;;;;;;12.68;7.13;;;5.70;99.90;;;;;;2063769;28;20240;-79
2024/03/07 01:29:48;;;;;;;10.17;6.27;;;5.60;99.90;;;;;;2057176;28;20781;-80
2024/03/07 01:30:52;;;;;;;14.07;7.67;;;5.60;99.90;;;;;;2068641;28;20189;-80
2024/03/07 01:31:53;;;;;;;14.48;7.82;;;5.60;99.90;;;;;;2055315;28;20257;-79
2024/03/07 01:32:54;;;;;;;12.90;8.07;;;5.50;99.90;;;;;;2066791;28;20201;-80
2024/03/07 01:33:55;;;;;;;11.38;7.28;;;5.60;99.90;;;;;;2058200;28;20193;-79
2024/03/07 01:34:56;;;;;;;13.20;7.90;;;5.60;99.90;;;;;;2066759;28;20539;-80
2024/03/07 01:35:56;;;;;;;9.57;6.33;;;5.60;99.90;;;;;;2074939;28;20188;-80
2024/03/07 01:36:57;;;;;;;16.70;8.90;;;5.60;99.90;;;;;;2059241;28;20186;-81
2024/03/07 01:37:58;;;;;;;16.10;8.87;;;5.60;99.90;;;;;;2051775;28;20215;-80
2024/03/07 01:38:58;;;;;;;15.77;7.87;;;5.60;99.90;;;;;;2059379;28;20264;-80
2024/03/07 01:39:59;;;;;;;20.30;10.07;;;5.60;99.90;;;;;;2064915;28;20275;-80
2024/03/07 01:41:00;;;;;;;15.13;7.80;;;5.60;99.90;;;;;;2067360;28;20194;-80
2024/03/07 01:42:00;;;;;;;12.83;7.63;;;5.60;99.90;;;;;;2068787;28;20189;-79
2024/03/07 01:43:03;;;;;;;17.90;9.43;;;5.60;99.90;;;;;;2067282;28;20188;-80
2024/03/07 01:44:04;;;;;;;26.10;11.10;;;5.50;99.90;;;;;;2068540;28;20242;-80
2024/03/07 01:45:05;;;;;;;21.90;10.17;;;5.50;99.90;;;;;;2065819;28;20230;-80
2024/03/07 01:46:06;;;;;;;18.48;10.25;;;5.50;99.90;;;;;;2058971;28;20480;-79
2024/03/07 01:47:07;;;;;;;19.87;10.33;;;5.50;99.90;;;;;;2060405;28;20227;-79
2024/03/07 01:48:20;;;;;;;46.85;13.35;;;5.60;99.90;;;;;;2067498;28;20653;-79
2024/03/07 01:49:22;;;;;;;32.17;13.48;;;5.50;99.90;;;;;;2068171;28;20230;-80
2024/03/07 01:50:22;;;;;;;31.55;14.73;;;5.40;99.90;;;;;;2055963;28;20773;-80
2024/03/07 01:51:23;;;;;;;85.33;19.10;;;5.40;99.90;;;;;;2063131;28;20243;-82
2024/03/07 01:52:24;;;;;;;56.93;16.80;;;5.40;99.90;;;;;;2057363;28;20442;-81
2024/03/07 01:53:30;;;;;;;47.55;15.63;;;5.50;99.90;;;;;;2059050;28;20237;-81
2024/03/07 01:54:31;;;;;;;115.25;21.92;;;5.50;99.90;;;;;;2068898;28;20731;-80
2024/03/07 01:55:33;;;;;;;96.50;24.30;;;5.40;99.90;;;;;;2066470;28;20229;-81
2024/03/07 01:56:36;;;;;;;121.15;25.85;;;5.40;99.90;;;;;;2060178;28;20351;-80
2024/03/07 01:57:37;;;;;;;83.70;21.25;;;5.40;99.90;;;;;;2074569;28;20233;-81
2024/03/07 01:58:37;;;;;;;276.97;37.27;;;5.50;99.90;;;;;;2062892;28;20226;-80
2024/03/07 01:59:39;;;;;;;207.00;32.60;;;5.40;99.90;;;;;;2070466;28;20789;-81
2024/03/07 02:00:40;;;;;;;205.85;33.55;;;5.50;99.90;;;;;;2057479;28;20628;-81
2024/03/07 02:01:41;;;;;;;115.00;25.97;;;5.50;99.90;;;;;;2053757;28;20258;-81
2024/03/07 02:02:42;;;;;;;157.25;30.73;;;5.40;99.90;;;;;;2054887;28;20690;-81
2024/03/07 02:03:43;;;;;;;114.97;26.67;;;5.50;99.90;;;;;;2064045;28;20204;-80
2024/03/07 02:04:44;;;;;;;65.00;23.20;;;5.50;99.90;;;;;;2072240;28;20185;-80
2024/03/07 02:05:45;;;;;;;208.10;36.45;;;5.50;99.90;;;;;;2067764;28;20189;-80
2024/03/07 02:06:46;;;;;;;81.87;21.70;;;5.50;99.90;;;;;;2055075;28;20191;-80
2024/03/07 02:07:47;;;;;;;177.30;33.47;;;5.50;99.90;;;;;;2061520;28;20194;-80
2024/03/07 02:08:47;;;;;;;81.75;23.25;;;5.50;99.90;;;;;;2056741;28;20191;-79
2024/03/07 02:09:48;;;;;;;74.23;24.43;;;5.40;99.90;;;;;;2059623;28;20194;-81
2024/03/07 02:10:49;;;;;;;250.40;39.70;;;5.40;99.90;;;;;;2067614;28;20240;-81
2024/03/07 02:11:49;;;;;;;233.07;44.00;;;5.40;99.90;;;;;;2051087;28;20206;-80
2024/03/07 02:12:51;;;;;;;180.60;39.53;;;5.50;99.90;;;;;;2063318;28;20217;-81
2024/03/07 02:13:51;;;;;;;168.13;32.63;;;5.50;99.90;;;;;;2059735;28;20234;-80
2024/03/07 02:14:52;;;;;;;184.17;34.53;;;5.40;99.90;;;;;;2060455;28;20182;-81
2024/03/07 02:15:53;;;;;;;311.07;43.73;;;5.40;99.90;;;;;;2066867;28;20184;-81
2024/03/07 02:16:56;;;;;;;410.48;56.78;;;5.40;99.90;;;;;;2057563;28;20261;-80
2024/03/07 02:17:57;;;;;;;99.82;30.40;;;5.30;99.90;;;;;;2053754;28;20201;-81
2024/03/07 02:18:59;;;;;;;104.20;27.98;;;5.30;99.90;;;;;;2059169;28;20186;-81
2024/03/07 02:20:00;;;;;;;139.13;31.42;;;5.40;99.90;;;;;;2065552;28;20589;-81
2024/03/07 02:21:06;;;;;;;211.97;33.67;;;5.40;99.90;;;;;;2066434;28;20182;-81
2024/03/07 02:22:06;;;;;;;464.13;61.40;;;5.30;99.90;;;;;;2060036;28;20236;-81
2024/03/07 02:23:07;;;;;;;186.83;35.17;;;5.40;99.90;;;;;;2059207;28;20411;-81
2024/03/07 02:24:08;;;;;;;319.87;50.53;;;5.40;99.90;;;;;;2060038;28;20222;-79
2024/03/07 02:25:10;;;;;;;302.48;43.97;;;5.30;99.90;;;;;;2061735;28;20230;-81
2024/03/07 02:26:10;;;;;;;179.43;36.85;;;5.40;99.90;;;;;;2061155;28;20226;-80
2024/03/07 02:27:14;;;;;;;229.53;42.50;;;5.40;99.90;;;;;;2062847;28;20236;-81
2024/03/07 02:28:14;;;;;;;306.05;63.35;;;5.40;99.90;;;;;;2066050;28;20302;-80
2024/03/07 02:29:15;;;;;;;234.83;36.43;;;5.40;99.90;;;;;;2066961;28;20319;-80
2024/03/07 02:30:18;;;;;;;203.87;38.67;;;5.40;99.90;;;;;;2048551;28;20634;-81
2024/03/07 02:31:19;;;;;;;266.15;42.25;;;5.50;99.90;;;;;;2057244;28;20266;-80
2024/03/07 02:32:20;;;;;;;219.90;39.03;;;5.50;99.90;;;;;;2063321;28;20313;-80
2024/03/07 02:33:21;;;;;;;220.13;41.77;;;5.50;99.90;;;;;;2067324;28;20622;-81
2024/03/07 02:34:22;;;;;;;279.92;58.53;;;5.50;99.90;;;;;;2050603;28;20223;-80
2024/03/07 02:35:23;;;;;;;255.23;43.70;;;5.60;99.90;;;;;;2057482;28;20227;-81
2024/03/07 02:36:24;;;;;;;220.27;40.00;;;5.60;99.90;;;;;;2051105;28;20305;-81
2024/03/07 02:37:25;;;;;;;70.15;24.17;;;5.60;99.90;;;;;;2070340;28;20236;-81
2024/03/07 02:38:25;;;;;;;226.33;36.53;;;5.70;99.90;;;;;;2069442;28;20217;-81
2024/03/07 02:39:26;;;;;;;399.13;51.57;;;5.60;99.90;;;;;;2067348;28;20222;-81
2024/03/07 02:40:27;;;;;;;162.40;38.93;;;5.50;99.90;;;;;;2054730;28;20599;-81
2024/03/07 02:41:27;;;;;;;203.23;35.80;;;5.50;99.90;;;;;;2055452;28;20218;-81
2024/03/07 02:42:28;;;;;;;149.90;32.70;;;5.50;99.90;;;;;;2054713;28;20700;-81
2024/03/07 02:43:29;;;;;;;125.53;34.63;;;5.50;99.90;;;;;;2064731;28;20299;-81
2024/03/07 02:44:31;;;;;;;202.60;37.37;;;5.40;99.90;;;;;;2077299;28;21124;-81
2024/03/07 02:45:32;;;;;;;188.10;39.92;;;5.40;99.90;;;;;;2065080;28;20287;-81
2024/03/07 02:46:33;;;;;;;180.00;34.97;;;5.40;99.90;;;;;;2057210;28;20312;-80
2024/03/07 02:47:33;;;;;;;248.73;40.83;;;5.40;99.90;;;;;;2066842;28;20233;-81
2024/03/07 02:48:34;;;;;;;108.97;31.27;;;5.40;99.90;;;;;;2066464;28;20810;-81
2024/03/07 02:49:34;;;;;;;383.70;55.13;;;5.40;99.90;;;;;;2057495;28;20262;-80
2024/03/07 02:50:39;;;;;;;235.17;40.33;;;5.40;99.90;;;;;;2058043;28;20280;-81
2024/03/07 02:51:41;;;;;;;302.17;47.80;;;5.40;99.90;;;;;;2056343;28;20226;-81
2024/03/07 02:52:42;;;;;;;310.92;46.90;;;5.30;99.90;;;;;;2044613;28;20237;-81
2024/03/07 02:53:43;;;;;;;171.53;35.43;;;5.20;99.90;;;;;;2057147;28;20225;-81
2024/03/07 02:54:43;;;;;;;231.27;41.10;;;5.10;99.90;;;;;;2046622;28;20179;-79
2024/03/07 02:55:44;;;;;;;183.80;37.33;;;5.10;99.90;;;;;;2054562;28;20202;-80
2024/03/07 02:56:45;;;;;;;241.13;37.60;;;5.10;99.90;;;;;;2062041;28;20198;-79
2024/03/07 02:57:45;;;;;;;165.23;34.33;;;5.20;99.90;;;;;;2057469;28;20179;-79
2024/03/07 02:58:46;;;;;;;189.30;37.83;;;5.10;99.90;;;;;;2049303;28;20187;-79
2024/03/07 02:59:47;;;;;;;139.33;37.37;;;5.10;99.90;;;;;;2070849;28;20178;-80
2024/03/07 03:00:49;;;;;;;113.20;31.87;;;5.10;99.90;;;;;;2060309;28;20195;-79
2024/03/07 03:01:50;;;;;;;124.32;33.75;;;5.10;99.90;;;;;;2051210;28;20727;-79
2024/03/07 03:02:51;;;;;;;110.65;27.67;;;5.30;99.90;;;;;;2062929;28;20182;-79
2024/03/07 03:03:51;;;;;;;240.40;42.77;;;5.20;99.90;;;;;;2053185;28;20191;-79
2024/03/07 03:04:52;;;;;;;357.50;58.20;;;5.20;99.90;;;;;;2050993;28;20191;-79
2024/03/07 03:05:53;;;;;;;208.70;37.40;;;5.20;99.90;;;;;;2054492;28;20197;-79
2024/03/07 03:06:53;;;;;;;303.63;55.80;;;5.20;99.90;;;;;;2057292;28;20194;-79
2024/03/07 03:07:54;;;;;;;256.23;45.67;;;5.20;99.90;;;;;;2055869;28;20277;-80
2024/03/07 03:08:55;;;;;;;181.90;43.50;;;5.20;99.90;;;;;;2068290;28;20197;-78
2024/03/07 03:09:55;;;;;;;201.43;42.63;;;5.20;99.90;;;;;;2062246;28;20218;-79
2024/03/07 03:10:56;;;;;;;146.33;35.57;;;5.30;99.90;;;;;;2054446;28;20190;-79
2024/03/07 03:11:57;;;;;;;210.33;39.67;;;5.30;99.90;;;;;;2057974;28;20685;-80
2024/03/07 03:12:59;;;;;;;115.17;31.17;;;5.30;99.90;;;;;;2045919;29;20224;-79
2024/03/07 03:13:59;;;;;;;101.85;30.25;;;5.40;99.90;;;;;;2037610;28;20255;-79
2024/03/07 03:15:00;;;;;;;145.40;33.20;;;5.40;99.90;;;;;;2054820;28;20175;-79
2024/03/07 03:16:04;;;;;;;179.80;41.03;;;5.40;99.90;;;;;;2064851;28;20206;-79
2024/03/07 03:17:08;;;;;;;108.93;30.55;;;5.30;99.90;;;;;;2047727;28;20236;-79
2024/03/07 03:18:09;;;;;;;110.40;32.63;;;5.20;99.90;;;;;;2063586;28;20225;-80
2024/03/07 03:19:10;;;;;;;155.27;35.33;;;5.20;99.90;;;;;;2071259;28;20233;-80
2024/03/07 03:20:15;;;;;;;253.27;55.78;;;5.20;99.90;;;;;;2066473;28;20719;-79
2024/03/07 03:21:15;;;;;;;157.65;33.33;;;5.30;99.90;;;;;;2061566;28;20226;-79
2024/03/07 03:22:16;;;;;;;200.30;39.17;;;5.30;99.90;;;;;;2065161;28;20241;-80
2024/03/07 03:23:17;;;;;;;67.53;27.63;;;5.30;99.90;;;;;;2064039;28;20678;-78
2024/03/07 03:24:17;;;;;;;220.03;42.60;;;5.30;99.90;;;;;;2063898;28;20218;-79
2024/03/07 03:25:23;;;;;;;146.10;34.33;;;5.30;99.90;;;;;;2057599;28;20219;-79
2024/03/07 03:26:23;;;;;;;169.27;36.80;;;5.30;99.90;;;;;;2060096;28;20217;-79
2024/03/07 03:27:24;;;;;;;143.60;34.90;;;5.20;99.90;;;;;;2062945;28;20269;-79
2024/03/07 03:28:25;;;;;;;159.93;35.67;;;5.20;99.90;;;;;;2050896;28;20256;-78
2024/03/07 03:29:28;;;;;;;99.63;26.33;;;5.30;99.90;;;;;;2058978;28;20260;-79
2024/03/07 03:30:28;;;;;;;199.50;36.03;;;5.40;99.90;;;;;;2057920;28;20261;-79
2024/03/07 03:31:29;;;;;;;273.83;48.90;;;5.30;99.90;;;;;;2066374;28;20596;-78
2024/03/07 03:32:30;;;;;;;283.20;46.87;;;5.30;99.90;;;;;;2058992;28;20223;-79
2024/03/07 03:33:32;;;;;;;94.60;30.00;;;5.20;99.90;;;;;;2062433;28;20237;-80
2024/03/07 03:34:33;;;;;;;218.25;41.72;;;5.30;99.90;;;;;;2066525;28;20221;-80
2024/03/07 03:35:34;;;;;;;317.38;47.45;;;5.20;99.90;;;;;;2058014;28;20223;-80
2024/03/07 03:36:35;;;;;;;320.08;47.45;;;5.10;99.90;;;;;;2077028;28;20236;-79
2024/03/07 03:37:35;;;;;;;150.63;32.97;;;5.10;99.90;;;;;;2059790;28;20269;-79
2024/03/07 03:38:36;;;;;;;183.40;40.57;;;5.10;99.90;;;;;;2052320;28;20234;-80
2024/03/07 03:39:37;;;;;;;167.97;33.43;;;5.10;99.90;;;;;;2059507;28;20230;-79
2024/03/07 03:40:38;;;;;;;290.87;47.47;;;5.00;99.90;;;;;;2065048;28;20225;-80
2024/03/07 03:41:38;;;;;;;262.13;49.67;;;4.80;99.90;;;;;;2061113;28;20615;-81
2024/03/07 03:42:41;;;;;;;310.37;51.17;;;4.70;99.90;;;;;;2067323;28;20232;-80
2024/03/07 03:43:42;;;;;;;159.40;35.10;;;4.70;99.90;;;;;;2071555;28;20225;-81
2024/03/07 03:44:42;;;;;;;184.77;44.00;;;4.80;99.90;;;;;;2067610;28;20706;-81
2024/03/07 03:45:43;;;;;;;145.93;34.17;;;4.90;99.90;;;;;;2058869;28;20190;-80
2024/03/07 03:46:44;;;;;;;409.00;56.47;;;4.90;99.90;;;;;;2053539;28;20218;-81
2024/03/07 03:47:45;;;;;;;408.47;58.00;;;4.90;99.90;;;;;;2068448;28;20198;-80
2024/03/07 03:48:46;;;;;;;369.58;46.67;;;4.80;99.90;;;;;;2057133;28;20185;-81
2024/03/07 03:49:47;;;;;;;190.63;39.03;;;4.90;99.90;;;;;;2053328;28;20187;-79
2024/03/07 03:50:47;;;;;;;381.88;55.35;;;4.90;99.90;;;;;;2064691;28;20543;-81
2024/03/07 03:51:48;;;;;;;261.30;41.77;;;5.00;99.90;;;;;;2066074;28;20208;-81
2024/03/07 03:52:49;;;;;;;329.43;53.10;;;5.00;99.90;;;;;;2074355;28;20177;-80
2024/03/07 03:53:51;;;;;;;233.53;39.23;;;4.90;99.90;;;;;;2063701;28;20186;-80
2024/03/07 03:54:52;;;;;;;213.93;40.55;;;4.90;99.90;;;;;;2065093;28;20939;-81
2024/03/07 03:55:52;;;;;;;268.80;44.77;;;4.80;99.90;;;;;;2066967;28;20182;-81
2024/03/07 03:56:53;;;;;;;154.17;28.93;;;4.80;99.90;;;;;;2059508;28;20182;-80
2024/03/07 03:57:54;;;;;;;227.83;38.93;;;4.80;99.90;;;;;;2058367;28;20415;-81
2024/03/07 03:58:54;;;;;;;340.80;59.03;;;4.80;99.90;;;;;;2058672;28;20190;-81
2024/03/07 03:59:56;;;;;;;306.53;47.80;;;4.90;99.90;;;;;;2057300;28;20233;-79
2024/03/07 04:00:58;;;;;;;178.93;33.55;;;4.80;99.90;;;;;;2057073;28;20214;-80
2024/03/07 04:01:59;;;;;;;266.80;41.33;;;4.80;99.90;;;;;;2052031;28;20744;-80
2024/03/07 04:03:00;;;;;;;367.60;56.75;;;4.80;99.90;;;;;;2066846;28;20222;-80
2024/03/07 04:04:01;;;;;;;137.77;33.33;;;4.80;99.90;;;;;;2065910;28;20213;-80
2024/03/07 04:05:03;;;;;;;270.97;44.67;;;4.80;99.90;;;;;;2065222;28;20220;-80
2024/03/07 04:06:04;;;;;;;182.13;37.53;;;4.90;99.90;;;;;;2047744;28;20238;-81
2024/03/07 04:07:05;;;;;;;202.85;35.97;;;4.90;99.90;;;;;;2051887;28;20235;-80
2024/03/07 04:08:06;;;;;;;340.63;51.63;;;4.90;99.90;;;;;;2054025;28;20237;-80
2024/03/07 04:09:07;;;;;;;195.80;38.93;;;4.80;99.90;;;;;;2056712;28;20254;-80
2024/03/07 04:10:09;;;;;;;364.75;54.85;;;4.80;99.90;;;;;;2058675;28;20235;-80
2024/03/07 04:11:10;;;;;;;166.52;34.80;;;4.60;99.90;;;;;;2059547;28;20235;-80
2024/03/07 04:12:11;;;;;;;305.53;44.50;;;4.80;99.90;;;;;;2055210;28;20264;-80
2024/03/07 04:13:11;;;;;;;229.95;44.35;;;4.70;99.90;;;;;;2061927;28;20238;-80
2024/03/07 04:14:12;;;;;;;356.80;54.13;;;4.60;99.90;;;;;;2066040;28;20296;-80
2024/03/07 04:15:18;;;;;;;200.73;41.77;;;4.60;99.90;;;;;;2049671;28;20753;-80
2024/03/07 04:16:19;;;;;;;224.85;42.67;;;4.60;99.90;;;;;;2058795;28;20233;-80
2024/03/07 04:17:20;;;;;;;182.40;41.07;;;4.60;99.90;;;;;;2070278;28;20228;-80
2024/03/07 04:18:21;;;;;;;204.32;47.70;;;4.70;99.90;;;;;;2064771;28;20230;-80
2024/03/07 04:19:22;;;;;;;190.30;43.70;;;4.70;99.90;;;;;;2064783;28;20229;-80
2024/03/07 04:20:24;;;;;;;215.03;42.07;;;4.70;99.90;;;;;;2062491;28;20226;-80
2024/03/07 04:21:25;;;;;;;345.15;59.15;;;4.80;99.90;;;;;;2053294;28;20438;-79
2024/03/07 04:22:26;;;;;;;103.83;32.37;;;4.80;99.90;;;;;;2051906;28;20224;-80
2024/03/07 04:23:27;;;;;;;215.07;42.53;;;4.80;99.90;;;;;;2061228;28;20473;-80
2024/03/07 04:24:29;;;;;;;176.77;40.47;;;4.80;99.90;;;;;;2058331;28;20278;-79
2024/03/07 04:25:31;;;;;;;163.57;33.97;;;4.80;99.90;;;;;;2059650;28;20724;-80
2024/03/07 04:26:32;;;;;;;212.73;43.50;;;4.70;99.90;;;;;;2063483;28;20221;-80
2024/03/07 04:27:36;;;;;;;191.43;40.53;;;4.70;99.90;;;;;;2055979;28;20237;-80
2024/03/07 04:28:37;;;;;;;250.73;43.55;;;4.60;99.90;;;;;;2060955;28;20230;-80
2024/03/07 04:29:38;;;;;;;128.77;35.03;;;4.60;99.90;;;;;;2065501;28;20229;-80
2024/03/07 04:30:38;;;;;;;127.47;35.27;;;4.50;99.90;;;;;;2053842;28;20269;-80
2024/03/07 04:31:39;;;;;;;212.57;43.80;;;4.60;99.90;;;;;;2053717;28;20239;-80
2024/03/07 04:32:41;;;;;;;148.57;34.97;;;4.50;99.90;;;;;;2063329;28;20226;-80
2024/03/07 04:33:42;;;;;;;261.35;47.15;;;4.60;99.90;;;;;;2066485;28;20233;-79
2024/03/07 04:34:44;;;;;;;232.73;46.30;;;4.60;99.90;;;;;;2045805;28;20184;-80
2024/03/07 04:35:45;;;;;;;200.02;41.40;;;4.60;99.90;;;;;;2054212;28;20193;-80
2024/03/07 04:36:45;;;;;;;241.53;46.10;;;4.70;99.90;;;;;;2062609;28;20189;-80
2024/03/07 04:37:46;;;;;;;288.53;49.67;;;4.70;99.90;;;;;;2071723;28;20721;-80
2024/03/07 04:38:47;;;;;;;216.97;42.07;;;4.70;99.90;;;;;;2071814;28;20280;-80
2024/03/07 04:39:47;;;;;;;157.67;35.47;;;4.70;99.90;;;;;;2065767;28;20206;-80
2024/03/07 04:40:48;;;;;;;285.60;63.63;;;4.70;99.90;;;;;;2067100;28;20677;-80
2024/03/07 04:41:49;;;;;;;236.83;43.67;;;4.70;99.90;;;;;;2060649;28;20245;-80
2024/03/07 04:42:50;;;;;;;340.30;56.03;;;4.70;99.90;;;;;;2068956;28;20211;-80
2024/03/07 04:43:51;;;;;;;272.93;50.23;;;4.70;99.90;;;;;;2052840;28;20198;-80
2024/03/07 04:44:51;;;;;;;157.07;33.47;;;4.70;99.90;;;;;;2066086;28;20256;-80
2024/03/07 04:45:52;;;;;;;404.03;67.20;;;4.70;99.90;;;;;;2070801;28;20181;-79
2024/03/07 04:46:56;;;;;;;266.50;56.67;;;4.60;99.90;;;;;;2064603;28;20181;-80
2024/03/07 04:47:57;;;;;;;320.73;61.15;;;4.60;99.90;;;;;;2068767;28;20223;-81
2024/03/07 04:48:58;;;;;;;310.37;55.97;;;4.60;99.90;;;;;;2071083;28;20235;-79
2024/03/07 04:49:58;;;;;;;454.23;61.77;;;4.60;99.90;;;;;;2065153;28;20249;-80
2024/03/07 04:50:59;;;;;;;560.43;77.30;;;4.60;99.90;;;;;;2057835;28;20314;-79
2024/03/07 04:52:02;;;;;;;363.70;52.50;;;4.60;99.90;;;;;;2065193;28;20202;-80
2024/03/07 04:53:03;;;;;;;420.10;61.53;;;4.70;99.90;;;;;;2053643;28;20223;-81
2024/03/07 04:54:03;;;;;;;177.90;34.70;;;4.60;99.90;;;;;;2066220;28;20234;-82
2024/03/07 04:55:08;;;;;;;340.47;59.57;;;4.60;99.90;;;;;;2068660;28;20999;-82
2024/03/07 04:56:09;;;;;;;245.52;46.17;;;4.50;99.90;;;;;;2068188;28;20225;-82
2024/03/07 04:57:11;;;;;;;433.67;61.15;;;4.60;99.90;;;;;;2060806;28;20226;-82
2024/03/07 04:58:12;;;;;;;427.95;65.13;;;4.70;99.90;;;;;;2061837;28;20222;-82
2024/03/07 04:59:17;;;;;;;145.70;38.22;;;4.70;99.90;;;;;;2069401;28;20236;-81
2024/03/07 05:00:19;;;;;;;273.00;47.75;;;4.70;99.90;;;;;;2063290;28;20769;-81
2024/03/07 05:01:20;;;;;;;155.48;35.17;;;4.70;99.90;;;;;;2078061;28;21043;-81
2024/03/07 05:02:23;;;;;;;149.75;35.47;;;4.60;99.90;;;;;;2055156;28;20212;-81
2024/03/07 05:03:24;;;;;;;249.15;56.67;;;4.60;99.90;;;;;;2059803;28;20289;-81
2024/03/07 05:04:24;;;;;;;173.70;40.27;;;4.70;99.90;;;;;;2066751;28;20308;-82
2024/03/07 05:05:26;;;;;;;128.60;34.37;;;4.80;99.90;;;;;;2071462;28;20245;-81
2024/03/07 05:06:27;;;;;;;106.68;34.22;;;4.70;99.90;;;;;;2070052;28;20220;-85
2024/03/07 05:07:27;;;;;;;106.80;28.90;;;4.70;99.90;;;;;;2075873;28;20244;-81
2024/03/07 05:08:28;;;;;;;276.63;52.60;;;4.70;99.90;;;;;;2074863;28;20297;-81
2024/03/07 05:09:29;;;;;;;411.60;74.63;;;4.70;99.90;;;;;;2076739;28;20224;-82
2024/03/07 05:10:30;;;;;;;155.13;38.10;;;4.60;99.90;;;;;;2065057;28;20239;-81
2024/03/07 05:11:31;;;;;;;223.70;51.67;;;4.60;99.90;;;;;;2067829;28;20219;-81
2024/03/07 05:12:32;;;;;;;149.63;37.93;;;4.70;99.90;;;;;;2074343;28;20264;-81
2024/03/07 05:13:33;;;;;;;151.85;38.83;;;4.70;99.90;;;;;;2066668;28;20230;-82